sensor_id;sensor_type;location;lat;lon;timestamp;pressure;altitude;pressure_sealevel;temperature;humidity
30081;BME280;16902;50.816;12.828;2023-02-15T00:01:58;99160.28;;;-2.75;100.00
30081;BME280;16902;50.816;12.828;2023-02-15T00:07:00;99153.13;;;-2.88;100.00
30081;BME280;16902;50.816;12.828;2023-02-15T00:12:02;99161.69;;;-2.90;100.00
30081;BME280;16902;50.816;12.828;2023-02-15T00:17:04;99155.56;;;-2.85;100.00
30081;BME280;16902;50.816;12.828;2023-02-15T00:22:06;99142.41;;;-2.96;100.00
30081;BME280;16902;50.816;12.828;2023-02-15T00:27:07;99142.56;;;-3.00;100.00
30081;BME280;16902;50.816;12.828;2023-02-15T00:32:10;99134.91;;;-2.99;100.00
30081;BME280;16902;50.816;12.828;2023-02-15T00:37:12;99132.38;;;-3.00;100.00
30081;BME280;16902;50.816;12.828;2023-02-15T00:42:14;99135.25;;;-3.08;100.00
30081;BME280;16902;50.816;12.828;2023-02-15T00:47:16;99129.97;;;-3.03;100.00
30081;BME280;16902;50.816;12.828;2023-02-15T00:52:18;99125.53;;;-2.98;100.00
30081;BME280;16902;50.816;12.828;2023-02-15T00:57:20;99124.28;;;-3.10;100.00
30081;BME280;16902;50.816;12.828;2023-02-15T01:02:22;99128.88;;;-3.18;100.00
30081;BME280;16902;50.816;12.828;2023-02-15T01:07:23;99128.91;;;-3.20;100.00
30081;BME280;16902;50.816;12.828;2023-02-15T01:12:28;99120.34;;;-3.17;100.00
30081;BME280;16902;50.816;12.828;2023-02-15T01:17:31;99116.25;;;-3.21;100.00
30081;BME280;16902;50.816;12.828;2023-02-15T01:22:33;99120.78;;;-3.29;100.00
30081;BME280;16902;50.816;12.828;2023-02-15T01:27:35;99114.84;;;-3.28;100.00
30081;BME280;16902;50.816;12.828;2023-02-15T01:32:37;99107.94;;;-3.26;100.00
30081;BME280;16902;50.816;12.828;2023-02-15T01:37:39;99103.75;;;-3.27;100.00
30081;BME280;16902;50.816;12.828;2023-02-15T01:42:41;99095.88;;;-3.21;100.00
30081;BME280;16902;50.816;12.828;2023-02-15T01:48:24;99088.72;;;-3.33;100.00
30081;BME280;16902;50.816;12.828;2023-02-15T01:53:38;99080.38;;;-3.37;100.00
30081;BME280;16902;50.816;12.828;2023-02-15T01:58:44;99066.34;;;-3.47;100.00
30081;BME280;16902;50.816;12.828;2023-02-15T02:04:05;99067.94;;;-3.45;100.00
30081;BME280;16902;50.816;12.828;2023-02-15T02:09:09;99065.53;;;-3.48;100.00
30081;BME280;16902;50.816;12.828;2023-02-15T02:14:12;99064.91;;;-3.54;100.00
30081;BME280;16902;50.816;12.828;2023-02-15T02:45:45;99018.13;;;-3.72;100.00
30081;BME280;16902;50.816;12.828;2023-02-15T02:50:51;99017.91;;;-3.68;100.00
30081;BME280;16902;50.816;12.828;2023-02-15T02:55:56;99015.03;;;-3.80;100.00
30081;BME280;16902;50.816;12.828;2023-02-15T03:06:20;99018.16;;;-3.96;100.00
30081;BME280;16902;50.816;12.828;2023-02-15T03:11:25;99014.19;;;-4.03;100.00
30081;BME280;16902;50.816;12.828;2023-02-15T03:16:27;99015.72;;;-3.99;100.00
30081;BME280;16902;50.816;12.828;2023-02-15T03:21:39;99014.38;;;-3.85;100.00
30081;BME280;16902;50.816;12.828;2023-02-15T03:26:45;99015.50;;;-3.93;100.00
30081;BME280;16902;50.816;12.828;2023-02-15T03:31:54;99016.78;;;-4.04;100.00
30081;BME280;16902;50.816;12.828;2023-02-15T03:37:00;99009.16;;;-4.04;100.00
30081;BME280;16902;50.816;12.828;2023-02-15T03:42:18;98999.75;;;-4.02;100.00
30081;BME280;16902;50.816;12.828;2023-02-15T03:47:26;99002.19;;;-3.99;100.00
30081;BME280;16902;50.816;12.828;2023-02-15T03:52:31;98992.13;;;-4.02;100.00
30081;BME280;16902;50.816;12.828;2023-02-15T03:57:36;98984.91;;;-4.13;100.00
30081;BME280;16902;50.816;12.828;2023-02-15T04:08:17;98985.63;;;-4.09;100.00
30081;BME280;16902;50.816;12.828;2023-02-15T04:13:20;98992.59;;;-4.15;100.00
30081;BME280;16902;50.816;12.828;2023-02-15T04:18:22;98990.25;;;-4.21;100.00
30081;BME280;16902;50.816;12.828;2023-02-15T04:23:42;98994.69;;;-4.26;100.00
30081;BME280;16902;50.816;12.828;2023-02-15T04:29:03;98994.34;;;-4.38;100.00
30081;BME280;16902;50.816;12.828;2023-02-15T04:34:04;98988.09;;;-4.30;100.00
30081;BME280;16902;50.816;12.828;2023-02-15T04:39:07;98976.31;;;-4.32;100.00
30081;BME280;16902;50.816;12.828;2023-02-15T04:44:09;98977.78;;;-4.27;100.00
30081;BME280;16902;50.816;12.828;2023-02-15T04:49:12;98967.84;;;-4.33;100.00
30081;BME280;16902;50.816;12.828;2023-02-15T04:54:13;98961.94;;;-4.33;100.00
30081;BME280;16902;50.816;12.828;2023-02-15T04:59:15;98961.72;;;-4.27;100.00
30081;BME280;16902;50.816;12.828;2023-02-15T05:04:17;98955.97;;;-4.32;100.00
30081;BME280;16902;50.816;12.828;2023-02-15T05:09:19;98956.22;;;-4.38;100.00
30081;BME280;16902;50.816;12.828;2023-02-15T05:14:21;98957.84;;;-4.37;100.00
30081;BME280;16902;50.816;12.828;2023-02-15T05:19:23;98954.72;;;-4.44;100.00
30081;BME280;16902;50.816;12.828;2023-02-15T05:24:26;98951.56;;;-4.51;100.00
30081;BME280;16902;50.816;12.828;2023-02-15T05:29:46;98955.72;;;-4.48;100.00
30081;BME280;16902;50.816;12.828;2023-02-15T05:34:48;98955.41;;;-4.41;100.00
30081;BME280;16902;50.816;12.828;2023-02-15T05:39:50;98962.38;;;-4.46;100.00
30081;BME280;16902;50.816;12.828;2023-02-15T05:44:52;98958.09;;;-4.44;100.00
30081;BME280;16902;50.816;12.828;2023-02-15T05:49:54;98958.53;;;-4.56;100.00
30081;BME280;16902;50.816;12.828;2023-02-15T05:54:56;98957.47;;;-4.50;100.00
30081;BME280;16902;50.816;12.828;2023-02-15T05:59:58;98956.94;;;-4.58;100.00
30081;BME280;16902;50.816;12.828;2023-02-15T06:05:00;98955.00;;;-4.75;100.00
30081;BME280;16902;50.816;12.828;2023-02-15T06:10:03;98955.06;;;-4.77;100.00
30081;BME280;16902;50.816;12.828;2023-02-15T06:15:05;98960.75;;;-4.70;100.00
30081;BME280;16902;50.816;12.828;2023-02-15T06:20:08;98964.44;;;-4.79;100.00
30081;BME280;16902;50.816;12.828;2023-02-15T06:25:10;98961.94;;;-4.80;100.00
30081;BME280;16902;50.816;12.828;2023-02-15T06:30:13;98959.78;;;-4.91;100.00
30081;BME280;16902;50.816;12.828;2023-02-15T06:35:15;98959.53;;;-4.83;100.00
30081;BME280;16902;50.816;12.828;2023-02-15T06:40:17;98960.31;;;-4.81;100.00
30081;BME280;16902;50.816;12.828;2023-02-15T06:45:19;98965.50;;;-4.61;100.00
30081;BME280;16902;50.816;12.828;2023-02-15T06:50:21;98963.34;;;-4.48;100.00
30081;BME280;16902;50.816;12.828;2023-02-15T06:55:23;98967.47;;;-4.46;100.00
30081;BME280;16902;50.816;12.828;2023-02-15T07:00:25;98960.81;;;-4.48;100.00
30081;BME280;16902;50.816;12.828;2023-02-15T07:05:27;98961.28;;;-4.38;100.00
30081;BME280;16902;50.816;12.828;2023-02-15T07:10:32;98963.44;;;-4.28;100.00
30081;BME280;16902;50.816;12.828;2023-02-15T07:15:34;98952.69;;;-4.13;100.00
30081;BME280;16902;50.816;12.828;2023-02-15T07:20:37;98940.69;;;-4.09;100.00
30081;BME280;16902;50.816;12.828;2023-02-15T07:25:39;98935.78;;;-3.92;100.00
30081;BME280;16902;50.816;12.828;2023-02-15T07:30:40;98933.28;;;-3.73;100.00
30081;BME280;16902;50.816;12.828;2023-02-15T07:35:47;98925.19;;;-3.60;100.00
30081;BME280;16902;50.816;12.828;2023-02-15T07:40:49;98916.16;;;-3.47;100.00
30081;BME280;16902;50.816;12.828;2023-02-15T07:45:51;98906.78;;;-3.26;100.00
30081;BME280;16902;50.816;12.828;2023-02-15T07:50:53;98904.00;;;-3.01;100.00
30081;BME280;16902;50.816;12.828;2023-02-15T07:55:58;98903.63;;;-2.73;100.00
30081;BME280;16902;50.816;12.828;2023-02-15T08:01:00;98896.25;;;-2.42;100.00
30081;BME280;16902;50.816;12.828;2023-02-15T08:06:06;98892.88;;;-2.06;100.00
30081;BME280;16902;50.816;12.828;2023-02-15T08:21:48;98878.47;;;-1.05;100.00
30081;BME280;16902;50.816;12.828;2023-02-15T08:26:51;98881.97;;;-0.74;100.00
30081;BME280;16902;50.816;12.828;2023-02-15T08:31:55;98882.00;;;-0.42;100.00
30081;BME280;16902;50.816;12.828;2023-02-15T08:37:00;98877.16;;;-0.01;100.00
30081;BME280;16902;50.816;12.828;2023-02-15T08:42:02;98871.59;;;0.37;100.00
30081;BME280;16902;50.816;12.828;2023-02-15T08:47:04;98860.03;;;0.74;100.00
30081;BME280;16902;50.816;12.828;2023-02-15T08:52:06;98869.72;;;1.26;100.00
30081;BME280;16902;50.816;12.828;2023-02-15T08:57:08;98857.47;;;1.85;100.00
30081;BME280;16902;50.816;12.828;2023-02-15T09:02:11;98858.63;;;2.34;100.00
30081;BME280;16902;50.816;12.828;2023-02-15T09:07:13;98854.94;;;2.76;100.00
30081;BME280;16902;50.816;12.828;2023-02-15T09:12:15;98854.78;;;3.16;100.00
30081;BME280;16902;50.816;12.828;2023-02-15T09:17:17;98843.56;;;3.53;100.00
30081;BME280;16902;50.816;12.828;2023-02-15T09:22:19;98846.47;;;3.97;100.00
30081;BME280;16902;50.816;12.828;2023-02-15T09:27:21;98849.31;;;4.40;100.00
30081;BME280;16902;50.816;12.828;2023-02-15T09:32:23;98841.50;;;4.86;100.00
30081;BME280;16902;50.816;12.828;2023-02-15T09:37:25;98848.16;;;5.34;100.00
30081;BME280;16902;50.816;12.828;2023-02-15T10:09:16;98838.09;;;8.75;100.00
30081;BME280;16902;50.816;12.828;2023-02-15T10:30:12;98829.16;;;10.06;96.19
30081;BME280;16902;50.816;12.828;2023-02-15T10:35:35;98823.25;;;10.22;79.19
30081;BME280;16902;50.816;12.828;2023-02-15T10:41:05;98815.47;;;10.48;77.52
30081;BME280;16902;50.816;12.828;2023-02-15T10:57:08;98801.13;;;11.46;77.56
30081;BME280;16902;50.816;12.828;2023-02-15T11:08:12;98794.91;;;12.78;69.95
30081;BME280;16902;50.816;12.828;2023-02-15T11:13:16;98798.84;;;15.97;59.50
30081;BME280;16902;50.816;12.828;2023-02-15T11:18:26;98794.44;;;18.24;48.79
30081;BME280;16902;50.816;12.828;2023-02-15T11:23:29;98795.22;;;19.99;44.23
30081;BME280;16902;50.816;12.828;2023-02-15T11:28:45;98789.41;;;20.15;44.45
30081;BME280;16902;50.816;12.828;2023-02-15T11:34:29;98791.59;;;20.43;44.71
30081;BME280;16902;50.816;12.828;2023-02-15T11:39:36;98777.53;;;18.78;46.54
30081;BME280;16902;50.816;12.828;2023-02-15T11:49:59;98777.13;;;17.68;47.35
30081;BME280;16902;50.816;12.828;2023-02-15T11:55:01;98776.81;;;19.09;42.81
30081;BME280;16902;50.816;12.828;2023-02-15T12:05:42;98760.09;;;18.50;46.17
30081;BME280;16902;50.816;12.828;2023-02-15T12:10:57;98761.38;;;18.15;47.02
30081;BME280;16902;50.816;12.828;2023-02-15T12:16:06;98753.19;;;18.76;47.68
30081;BME280;16902;50.816;12.828;2023-02-15T12:21:14;98759.88;;;18.79;45.51
30081;BME280;16902;50.816;12.828;2023-02-15T12:26:30;98755.03;;;18.69;44.73
30081;BME280;16902;50.816;12.828;2023-02-15T12:31:38;98745.25;;;19.27;45.79
30081;BME280;16902;50.816;12.828;2023-02-15T12:36:47;98739.09;;;20.84;43.81
30081;BME280;16902;50.816;12.828;2023-02-15T12:42:03;98750.34;;;20.17;44.28
30081;BME280;16902;50.816;12.828;2023-02-15T12:47:18;98746.94;;;20.10;43.55
30081;BME280;16902;50.816;12.828;2023-02-15T13:02:47;98734.63;;;20.47;41.22
30081;BME280;16902;50.816;12.828;2023-02-15T13:07:54;98732.00;;;21.33;39.47
30081;BME280;16902;50.816;12.828;2023-02-15T13:12:57;98742.63;;;21.98;39.78
30081;BME280;16902;50.816;12.828;2023-02-15T13:18:00;98738.00;;;20.73;39.91
30081;BME280;16902;50.816;12.828;2023-02-15T13:23:09;98734.19;;;21.17;39.35
30081;BME280;16902;50.816;12.828;2023-02-15T13:28:16;98735.88;;;23.01;36.60
30081;BME280;16902;50.816;12.828;2023-02-15T13:33:36;98734.13;;;21.42;38.43
30081;BME280;16902;50.816;12.828;2023-02-15T13:38:58;98731.56;;;22.60;37.79
30081;BME280;16902;50.816;12.828;2023-02-15T13:44:11;98719.88;;;22.72;37.86
30081;BME280;16902;50.816;12.828;2023-02-15T14:11:04;98702.03;;;12.67;58.08
30081;BME280;16902;50.816;12.828;2023-02-15T14:16:23;98704.44;;;12.13;59.22
30081;BME280;16902;50.816;12.828;2023-02-15T14:21:32;98702.84;;;11.96;62.38
30081;BME280;16902;50.816;12.828;2023-02-15T14:31:49;98693.22;;;11.80;58.76
30081;BME280;16902;50.816;12.828;2023-02-15T14:36:54;98700.06;;;11.65;58.42
30081;BME280;16902;50.816;12.828;2023-02-15T14:42:01;98700.22;;;11.55;58.80
30081;BME280;16902;50.816;12.828;2023-02-15T14:47:22;98709.19;;;11.44;58.96
30081;BME280;16902;50.816;12.828;2023-02-15T14:52:26;98713.72;;;11.34;60.57
30081;BME280;16902;50.816;12.828;2023-02-15T14:57:30;98714.69;;;11.25;60.20
30081;BME280;16902;50.816;12.828;2023-02-15T15:02:50;98712.06;;;11.09;61.93
30081;BME280;16902;50.816;12.828;2023-02-15T15:07:58;98689.38;;;10.93;64.04
30081;BME280;16902;50.816;12.828;2023-02-15T15:18:47;98688.13;;;10.54;72.05
30081;BME280;16902;50.816;12.828;2023-02-15T15:23:49;98682.97;;;10.37;70.92
30081;BME280;16902;50.816;12.828;2023-02-15T15:34:24;98675.53;;;10.16;66.95
30081;BME280;16902;50.816;12.828;2023-02-15T15:45:02;98663.91;;;10.02;65.21
30081;BME280;16902;50.816;12.828;2023-02-15T15:50:17;98663.44;;;9.81;65.98
30081;BME280;16902;50.816;12.828;2023-02-15T15:55:22;98656.53;;;9.71;67.87
30081;BME280;16902;50.816;12.828;2023-02-15T16:00:44;98658.75;;;9.58;68.94
30081;BME280;16902;50.816;12.828;2023-02-15T16:05:48;98660.00;;;9.54;71.30
30081;BME280;16902;50.816;12.828;2023-02-15T16:10:56;98648.44;;;9.31;75.79
30081;BME280;16902;50.816;12.828;2023-02-15T16:15:59;98645.72;;;9.14;79.17
30081;BME280;16902;50.816;12.828;2023-02-15T16:21:01;98651.53;;;8.98;80.26
30081;BME280;16902;50.816;12.828;2023-02-15T16:31:27;98663.59;;;8.44;93.26
30081;BME280;16902;50.816;12.828;2023-02-15T16:36:29;98652.91;;;8.20;94.84
30081;BME280;16902;50.816;12.828;2023-02-15T16:41:31;98656.41;;;7.91;100.00
30081;BME280;16902;50.816;12.828;2023-02-15T16:46:39;98656.63;;;7.51;100.00
30081;BME280;16902;50.816;12.828;2023-02-15T16:51:43;98655.09;;;7.00;100.00
30081;BME280;16902;50.816;12.828;2023-02-15T16:56:46;98661.44;;;6.67;100.00
30081;BME280;16902;50.816;12.828;2023-02-15T17:01:51;98658.03;;;5.75;100.00
30081;BME280;16902;50.816;12.828;2023-02-15T17:07:33;98655.53;;;5.10;100.00
30081;BME280;16902;50.816;12.828;2023-02-15T17:12:47;98655.94;;;4.51;100.00
30081;BME280;16902;50.816;12.828;2023-02-15T17:17:59;98651.13;;;4.24;100.00
30081;BME280;16902;50.816;12.828;2023-02-15T17:23:02;98659.47;;;4.17;100.00
30081;BME280;16902;50.816;12.828;2023-02-15T17:28:16;98661.53;;;4.00;100.00
30081;BME280;16902;50.816;12.828;2023-02-15T17:38:37;98663.28;;;3.77;100.00
30081;BME280;16902;50.816;12.828;2023-02-15T17:43:39;98657.44;;;4.20;100.00
30081;BME280;16902;50.816;12.828;2023-02-15T17:48:43;98661.31;;;4.59;100.00
30081;BME280;16902;50.816;12.828;2023-02-15T17:53:45;98659.91;;;4.55;100.00
30081;BME280;16902;50.816;12.828;2023-02-15T17:59:06;98661.91;;;4.29;100.00
30081;BME280;16902;50.816;12.828;2023-02-15T18:04:11;98657.94;;;4.36;100.00
30081;BME280;16902;50.816;12.828;2023-02-15T18:09:32;98658.63;;;4.38;100.00
30081;BME280;16902;50.816;12.828;2023-02-15T18:14:53;98653.25;;;4.08;100.00
30081;BME280;16902;50.816;12.828;2023-02-15T18:19:55;98657.06;;;3.69;100.00
30081;BME280;16902;50.816;12.828;2023-02-15T18:24:57;98665.97;;;3.76;100.00
30081;BME280;16902;50.816;12.828;2023-02-15T18:30:00;98653.78;;;3.67;100.00
30081;BME280;16902;50.816;12.828;2023-02-15T18:35:02;98660.81;;;3.65;100.00
30081;BME280;16902;50.816;12.828;2023-02-15T18:40:14;98664.88;;;3.56;100.00
30081;BME280;16902;50.816;12.828;2023-02-15T18:45:22;98664.75;;;3.22;100.00
30081;BME280;16902;50.816;12.828;2023-02-15T18:50:28;98664.69;;;3.00;100.00
30081;BME280;16902;50.816;12.828;2023-02-15T18:55:32;98672.19;;;2.66;100.00
30081;BME280;16902;50.816;12.828;2023-02-15T19:00:36;98668.91;;;2.51;100.00
30081;BME280;16902;50.816;12.828;2023-02-15T19:05:40;98665.59;;;2.38;100.00
30081;BME280;16902;50.816;12.828;2023-02-15T19:10:42;98664.97;;;2.35;100.00
30081;BME280;16902;50.816;12.828;2023-02-15T19:15:44;98655.31;;;2.25;100.00
30081;BME280;16902;50.816;12.828;2023-02-15T19:20:46;98651.44;;;2.07;100.00
30081;BME280;16902;50.816;12.828;2023-02-15T19:25:49;98649.91;;;1.92;100.00
30081;BME280;16902;50.816;12.828;2023-02-15T19:30:52;98646.41;;;1.93;100.00
30081;BME280;16902;50.816;12.828;2023-02-15T19:35:55;98640.38;;;1.94;100.00
30081;BME280;16902;50.816;12.828;2023-02-15T19:41:05;98631.94;;;2.04;100.00
30081;BME280;16902;50.816;12.828;2023-02-15T19:46:14;98623.56;;;2.26;100.00
30081;BME280;16902;50.816;12.828;2023-02-15T19:51:20;98627.09;;;2.49;100.00
30081;BME280;16902;50.816;12.828;2023-02-15T19:56:23;98614.56;;;2.81;100.00
30081;BME280;16902;50.816;12.828;2023-02-15T20:01:29;98624.59;;;2.84;100.00
30081;BME280;16902;50.816;12.828;2023-02-15T20:06:31;98628.22;;;3.06;100.00
30081;BME280;16902;50.816;12.828;2023-02-15T20:11:34;98621.34;;;3.18;100.00
30081;BME280;16902;50.816;12.828;2023-02-15T20:16:36;98616.63;;;3.00;100.00
30081;BME280;16902;50.816;12.828;2023-02-15T20:21:39;98617.47;;;3.12;100.00
30081;BME280;16902;50.816;12.828;2023-02-15T20:26:42;98607.13;;;3.25;100.00
30081;BME280;16902;50.816;12.828;2023-02-15T20:31:44;98606.53;;;3.32;100.00
30081;BME280;16902;50.816;12.828;2023-02-15T20:36:46;98604.84;;;3.55;100.00
30081;BME280;16902;50.816;12.828;2023-02-15T20:41:48;98608.69;;;3.61;100.00
30081;BME280;16902;50.816;12.828;2023-02-15T20:46:52;98606.84;;;3.63;100.00
30081;BME280;16902;50.816;12.828;2023-02-15T20:51:55;98604.16;;;3.65;100.00
30081;BME280;16902;50.816;12.828;2023-02-15T20:56:58;98604.63;;;3.58;100.00
30081;BME280;16902;50.816;12.828;2023-02-15T21:07:16;98596.09;;;3.80;100.00
30081;BME280;16902;50.816;12.828;2023-02-15T21:12:19;98597.16;;;3.78;100.00
30081;BME280;16902;50.816;12.828;2023-02-15T21:17:22;98601.91;;;3.60;100.00
30081;BME280;16902;50.816;12.828;2023-02-15T21:22:24;98594.72;;;3.30;100.00
30081;BME280;16902;50.816;12.828;2023-02-15T21:27:27;98588.34;;;3.12;100.00
30081;BME280;16902;50.816;12.828;2023-02-15T21:32:29;98590.13;;;3.22;100.00
30081;BME280;16902;50.816;12.828;2023-02-15T21:37:34;98588.34;;;3.12;100.00
30081;BME280;16902;50.816;12.828;2023-02-15T21:42:36;98587.38;;;3.01;100.00
30081;BME280;16902;50.816;12.828;2023-02-15T21:47:56;98585.69;;;2.65;100.00
30081;BME280;16902;50.816;12.828;2023-02-15T21:52:58;98581.22;;;2.56;100.00
30081;BME280;16902;50.816;12.828;2023-02-15T21:58:00;98584.03;;;2.53;100.00
30081;BME280;16902;50.816;12.828;2023-02-15T22:03:04;98578.03;;;2.28;100.00
30081;BME280;16902;50.816;12.828;2023-02-15T22:08:11;98578.84;;;2.29;100.00
30081;BME280;16902;50.816;12.828;2023-02-15T22:13:16;98580.13;;;2.11;100.00
30081;BME280;16902;50.816;12.828;2023-02-15T22:18:23;98579.66;;;1.67;100.00
30081;BME280;16902;50.816;12.828;2023-02-15T22:23:25;98583.38;;;1.63;100.00
30081;BME280;16902;50.816;12.828;2023-02-15T22:28:32;98573.69;;;2.05;100.00
30081;BME280;16902;50.816;12.828;2023-02-15T22:33:34;98578.84;;;2.29;100.00
30081;BME280;16902;50.816;12.828;2023-02-15T22:38:36;98567.31;;;2.35;100.00
30081;BME280;16902;50.816;12.828;2023-02-15T22:43:40;98571.75;;;2.33;100.00
30081;BME280;16902;50.816;12.828;2023-02-15T22:48:44;98570.00;;;2.33;100.00
30081;BME280;16902;50.816;12.828;2023-02-15T22:53:48;98579.66;;;2.42;100.00
30081;BME280;16902;50.816;12.828;2023-02-15T22:59:00;98583.63;;;2.70;100.00
30081;BME280;16902;50.816;12.828;2023-02-15T23:04:03;98590.13;;;2.87;100.00
30081;BME280;16902;50.816;12.828;2023-02-15T23:09:05;98588.41;;;2.99;100.00
30081;BME280;16902;50.816;12.828;2023-02-15T23:14:36;98588.53;;;2.97;100.00
30081;BME280;16902;50.816;12.828;2023-02-15T23:19:38;98588.25;;;2.89;100.00
30081;BME280;16902;50.816;12.828;2023-02-15T23:24:41;98599.13;;;2.81;100.00
30081;BME280;16902;50.816;12.828;2023-02-15T23:29:43;98598.50;;;2.78;100.00
30081;BME280;16902;50.816;12.828;2023-02-15T23:34:45;98595.81;;;2.79;100.00
30081;BME280;16902;50.816;12.828;2023-02-15T23:39:47;98590.47;;;2.82;100.00
30081;BME280;16902;50.816;12.828;2023-02-15T23:45:21;98592.34;;;2.80;100.00
30081;BME280;16902;50.816;12.828;2023-02-15T23:50:25;98585.47;;;2.92;100.00
30081;BME280;16902;50.816;12.828;2023-02-15T23:55:37;98595.22;;;3.00;100.00
